Briefing drone pour Guilherand-granges

Rechercher une autre localisation

Conditions de vol :


Nous sommes le : Lundi 18 janvier 2021
Il est 16:03 UTC (17:03 LT)

Lever de soleil : 06:46 UTC (07:46 LT)
Coucher de soleil : 16:55 UTC (17:55 LT)

Météo

L'essentiel des conditions de vol

VIGILANCE MÉTÉO FRANCE - Ardèche (07)
Pas de vigilances particulieres
METAR de LFLU
LFLU 181530Z AUTO 35016KT CAVOK 06/M01 Q1026

Date d'émission: 18/01/2021
Heure d'émission: 15:30 UTC
Vent: 350° pour 16 KT (30 km/h)
Visibilité horizontale: > 10 km
Plafond : Plafond et visibilité OK (CAVOK)
Température: 6 °C
Point de rosée: -1 °C
Humidité: 61%
Pression (QNH): 1026 hPa
Prévision 24h pour Valence (1 km)
Vent : 199° pour 5 KT (18 km/h)
Temperature Maxi: 7 °C
Temperature Min: 7 °C
Humidité : 57%
Condition : Partiellement nuageux



Warning: count(): Parameter must be an array or an object that implements Countable in /homepages/6/d509196549/htdocs/droneoxygene/briefing.php on line 743
WEBCAM POUR GUILHERAND-GRANGES

Réglementation

Voler en sécurité

CARTES AERONAUTIQUE 1/500.000
CARTES VAC (LFLU)
SUP AIP




Chargement des AIP...
NOTAM (GUILHERAND-GRANGES + Terrain à proximité / FIR )




Chargement des NOTAMS...
CONTACT PREFECTURE 07


Avertissement : Les données mises à disposition sont indicatives. Oxygène Drone ne pourra être tenu responsable de dégâts causés aux biens et aux personnes.